createdAt,value
2018-11-23T00:06:53.341Z,1.9
2018-11-23T00:17:07.262Z,1.7
2018-11-23T00:27:54.228Z,1.4
2018-11-23T00:38:07.455Z,1.3
2018-11-23T00:48:20.741Z,1.2
2018-11-23T00:59:06.248Z,0.9
2018-11-23T01:09:19.753Z,0.9
2018-11-23T01:19:32.731Z,0.9
2018-11-23T01:29:44.431Z,0.9
2018-11-23T01:39:58.912Z,0.9
2018-11-23T01:50:12.814Z,0.9
2018-11-23T02:00:37.906Z,1.0
2018-11-23T02:11:08.300Z,1.0
2018-11-23T02:21:53.865Z,0.9
2018-11-23T02:32:07.438Z,0.9
2018-11-23T02:42:21.348Z,0.9
2018-11-23T02:53:06.412Z,0.7
2018-11-23T03:03:51.761Z,0.6
2018-11-23T03:14:05.067Z,0.6
2018-11-23T03:24:18.346Z,0.6
2018-11-23T03:34:31.774Z,0.5
2018-11-23T03:44:44.725Z,0.5
2018-11-23T03:54:58.126Z,0.5
2018-11-23T04:09:01.153Z,0.6
2018-11-23T04:23:07.871Z,0.7
2018-11-23T04:33:21.789Z,0.7
2018-11-23T04:44:19.918Z,0.6
2018-11-23T04:54:33.792Z,0.5
2018-11-23T05:04:46.970Z,0.4
2018-11-23T05:16:35.725Z,0.2
2018-11-23T05:27:04.643Z,0.2
2018-11-23T05:37:17.470Z,0.0
2018-11-23T05:48:33.569Z,-0.2
2018-11-23T05:59:56.767Z,-0.3
2018-11-23T06:14:29.179Z,-0.4
2018-11-23T06:25:30.495Z,-0.4
2018-11-23T06:39:43.274Z,-0.5
2018-11-23T06:52:22.564Z,-0.5
2018-11-23T07:04:24.597Z,-0.5
2018-11-23T07:14:38.842Z,-0.5
2018-11-23T07:28:55.730Z,-0.7
2018-11-23T07:41:56.396Z,-0.7
2018-11-23T07:52:09.980Z,-0.8
2018-11-23T08:16:02.016Z,-0.7
2018-11-23T08:26:49.494Z,-0.5
2018-11-23T08:37:36.867Z,-0.3
2018-11-23T08:47:48.495Z,-0.3
2018-11-23T08:58:36.535Z,0.0
2018-11-23T09:08:50.580Z,0.0
2018-11-23T09:19:04.600Z,0.2
2018-11-23T09:29:15.926Z,0.4
2018-11-23T09:39:30.335Z,0.6
2018-11-23T10:07:13.275Z,1.5
2018-11-23T10:17:26.925Z,1.5
2018-11-23T10:27:41.384Z,1.8
2018-11-23T10:38:26.628Z,2.3
2018-11-23T10:49:47.016Z,2.7
2018-11-23T11:00:00.848Z,2.7
2018-11-23T11:10:14.202Z,3.1
2018-11-23T11:20:43.366Z,3.5
2018-11-23T11:30:57.934Z,4.4
2018-11-23T11:41:45.454Z,7.1
2018-11-23T11:52:32.837Z,7.5
2018-11-23T12:02:46.430Z,7.5
2018-11-23T12:13:00.389Z,7.6
2018-11-23T12:23:12.098Z,8.2
2018-11-23T12:33:26.457Z,9.4
2018-11-23T12:44:11.701Z,11.9
2018-11-23T12:54:23.367Z,11.9
2018-11-23T13:05:19.077Z,12.3
2018-11-23T13:16:04.239Z,11.9
2018-11-23T13:27:39.658Z,11.6
2018-11-23T13:37:53.359Z,11.7
2018-11-23T13:48:07.485Z,11.7
2018-11-23T13:58:53.026Z,12.0
2018-11-23T14:09:06.624Z,12.0
2018-11-23T14:20:06.811Z,12.2
2018-11-23T14:30:25.639Z,12.2
2018-11-23T14:41:16.478Z,12.3
2018-11-23T14:51:43.025Z,12.3
2018-11-23T15:01:55.149Z,12.2
2018-11-23T15:12:10.863Z,11.8
2018-11-23T15:22:59.685Z,11.3
2018-11-23T15:33:24.110Z,10.7
2018-11-23T15:43:37.579Z,10.0
2018-11-23T15:53:48.809Z,9.3
2018-11-23T16:04:12.294Z,8.7
2018-11-23T16:14:25.512Z,8.2
2018-11-23T16:25:02.291Z,7.6
2018-11-23T16:36:03.533Z,6.7
2018-11-23T16:46:17.591Z,6.7
2018-11-23T16:56:43.637Z,6.4
2018-11-23T17:07:34.071Z,5.8
2018-11-23T17:17:48.158Z,5.8
2018-11-23T18:19:29.476Z,4.5
2018-11-23T18:29:48.470Z,4.5
2018-11-23T18:40:46.104Z,4.2
2018-11-23T18:54:53.455Z,4.1
2018-11-23T19:36:04.077Z,3.6
2018-11-23T19:47:11.817Z,3.3
2018-11-23T19:58:10.987Z,3.1
2018-11-23T20:09:00.855Z,2.9
2018-11-23T20:20:51.258Z,2.7
2018-11-23T20:33:44.265Z,2.6
2018-11-23T20:46:14.062Z,2.4
2018-11-23T20:57:03.775Z,2.1
2018-11-23T21:07:22.201Z,2.1
2018-11-23T21:18:14.350Z,1.8
2018-11-23T21:44:07.178Z,1.6
2018-11-23T21:55:23.200Z,1.4
2018-11-23T22:23:01.199Z,1.2
2018-11-23T22:34:23.752Z,1.2
2018-11-23T22:46:03.898Z,1.2
2018-11-23T22:56:18.114Z,1.2
2018-11-23T23:07:04.075Z,1.2
2018-11-23T23:17:55.486Z,1.3
2018-11-23T23:28:40.612Z,1.3
2018-11-23T23:38:52.900Z,1.3
2018-11-23T23:49:06.969Z,1.4
2018-11-23T23:59:22.296Z,1.4
